Time;durP1;ratioP1;P1;durP2;ratioP2;P2;SDS_P1;SDS_P2;PMS_P1;PMS_P2;Temp;Humidity;BMP_temperature;BMP_pressure;BME280_temperature;BME280_humidity;BME280_pressure;Samples;Min_cycle;Max_cycle;Signal;HPM_P1;HPM_P2
2023/05/10 00:01:23;;;;;;;0.60;0.60;;;;;;;;;;5063283;28;20176;-80
2023/05/10 00:03:48;;;;;;;0.60;0.60;;;;;;;;;;5061484;28;20203;-81
2023/05/10 00:06:13;;;;;;;0.57;0.57;;;;;;;;;;5065309;28;20175;-80
2023/05/10 00:08:38;;;;;;;0.50;0.50;;;;;;;;;;5052593;28;20194;-80
2023/05/10 00:11:04;;;;;;;0.83;0.70;;;;;;;;;;5067811;28;20213;-80
2023/05/10 00:13:29;;;;;;;0.80;0.80;;;;;;;;;;5059984;28;20225;-80
2023/05/10 00:15:54;;;;;;;0.63;0.63;;;;;;;;;;5061776;28;20173;-80
2023/05/10 00:18:20;;;;;;;0.57;0.57;;;;;;;;;;5058452;28;20271;-81
2023/05/10 00:20:45;;;;;;;0.77;0.77;;;;;;;;;;5060129;28;20231;-80
2023/05/10 00:23:11;;;;;;;0.67;0.67;;;;;;;;;;5059454;28;20183;-80
2023/05/10 00:25:36;;;;;;;0.70;0.70;;;;;;;;;;5059231;28;20182;-80
2023/05/10 00:28:01;;;;;;;0.67;0.67;;;;;;;;;;5056668;28;20174;-80
2023/05/10 00:30:26;;;;;;;0.57;0.57;;;;;;;;;;5065087;28;20177;-80
2023/05/10 00:32:52;;;;;;;0.60;0.60;;;;;;;;;;5037354;28;20230;-80
2023/05/10 00:35:17;;;;;;;0.70;0.70;;;;;;;;;;5025611;28;20200;-80
2023/05/10 00:37:42;;;;;;;0.67;0.67;;;;;;;;;;5026625;28;20240;-80
2023/05/10 00:40:08;;;;;;;0.90;0.90;;;;;;;;;;5026384;28;20224;-80
2023/05/10 00:42:33;;;;;;;1.20;0.80;;;;;;;;;;5046876;28;20173;-80
2023/05/10 00:44:58;;;;;;;1.23;1.13;;;;;;;;;;5029209;28;20183;-80
2023/05/10 00:47:24;;;;;;;0.47;0.47;;;;;;;;;;5026566;28;20191;-80
2023/05/10 00:49:49;;;;;;;0.70;0.70;;;;;;;;;;5021672;28;20175;-82
2023/05/10 00:52:15;;;;;;;1.03;0.97;;;;;;;;;;5020213;28;20269;-82
2023/05/10 00:54:40;;;;;;;0.80;0.80;;;;;;;;;;5014676;28;20208;-82
2023/05/10 00:57:05;;;;;;;0.97;0.97;;;;;;;;;;5019656;28;20232;-82
2023/05/10 00:59:31;;;;;;;1.40;1.30;;;;;;;;;;5017897;28;20178;-82
2023/05/10 01:01:57;;;;;;;1.60;1.50;;;;;;;;;;5028170;28;20261;-82
2023/05/10 01:04:25;;;;;;;1.50;1.40;;;;;;;;;;5018222;28;20224;-82
2023/05/10 01:06:50;;;;;;;1.70;1.60;;;;;;;;;;5027220;28;20281;-82
2023/05/10 01:09:16;;;;;;;1.50;1.40;;;;;;;;;;5026059;28;20270;-81
2023/05/10 01:11:41;;;;;;;1.30;1.20;;;;;;;;;;5029876;28;20183;-80
2023/05/10 01:14:06;;;;;;;1.70;1.60;;;;;;;;;;5021998;28;20234;-80
2023/05/10 01:16:34;;;;;;;2.73;1.30;;;;;;;;;;5023835;28;20185;-80
2023/05/10 01:18:59;;;;;;;1.13;1.13;;;;;;;;;;5024530;28;20210;-79
2023/05/10 01:21:29;;;;;;;1.43;1.33;;;;;;;;;;5026376;28;20206;-79
2023/05/10 01:23:55;;;;;;;1.40;1.20;;;;;;;;;;5029366;28;20211;-79
2023/05/10 01:26:49;;;;;;;1.60;1.43;;;;;;;;;;5023030;28;20246;-80
2023/05/10 01:29:16;;;;;;;2.40;1.40;;;;;;;;;;5007238;28;20202;-80
2023/05/10 01:32:00;;;;;;;1.90;1.80;;;;;;;;;;5017702;28;20277;-80
2023/05/10 01:34:27;;;;;;;2.20;1.67;;;;;;;;;;5024649;28;20214;-80
2023/05/10 01:36:58;;;;;;;1.63;1.53;;;;;;;;;;5020307;28;20213;-80
2023/05/10 01:39:25;;;;;;;1.73;1.63;;;;;;;;;;5038092;28;20185;-79
2023/05/10 01:41:57;;;;;;;2.57;2.00;;;;;;;;;;5019656;28;20183;-79
2023/05/10 01:44:35;;;;;;;1.97;1.87;;;;;;;;;;5021853;28;20187;-81
2023/05/10 01:47:20;;;;;;;3.07;2.20;;;;;;;;;;5027234;28;20187;-81
2023/05/10 01:49:50;;;;;;;2.60;2.23;;;;;;;;;;5024396;28;20195;-80
2023/05/10 01:52:19;;;;;;;2.60;2.40;;;;;;;;;;5021903;28;20179;-80
2023/05/10 01:55:04;;;;;;;2.07;1.97;;;;;;;;;;5017320;28;20272;-79
2023/05/10 01:57:33;;;;;;;2.20;2.00;;;;;;;;;;5020423;28;20186;-79
2023/05/10 01:59:59;;;;;;;5.73;3.33;;;;;;;;;;5020802;28;20190;-79
2023/05/10 02:02:25;;;;;;;2.07;1.97;;;;;;;;;;5024223;28;20201;-79
2023/05/10 02:04:51;;;;;;;2.97;2.77;;;;;;;;;;5028514;28;20190;-79
2023/05/10 02:07:16;;;;;;;2.67;2.47;;;;;;;;;;5023007;28;20175;-79
2023/05/10 02:09:43;;;;;;;2.10;2.00;;;;;;;;;;5017739;28;20190;-80
2023/05/10 02:12:09;;;;;;;2.30;2.20;;;;;;;;;;5026802;28;20179;-79
2023/05/10 02:14:36;;;;;;;3.20;2.93;;;;;;;;;;5022406;28;20213;-79
2023/05/10 02:17:02;;;;;;;2.40;2.20;;;;;;;;;;5035605;28;20180;-79
2023/05/10 02:19:28;;;;;;;2.73;2.53;;;;;;;;;;5047040;28;20190;-79
2023/05/10 02:21:54;;;;;;;2.47;2.33;;;;;;;;;;5024543;28;20177;-79
2023/05/10 02:24:21;;;;;;;2.90;2.43;;;;;;;;;;5020401;28;20179;-79
2023/05/10 02:26:47;;;;;;;2.90;2.70;;;;;;;;;;5018103;28;20206;-79
2023/05/10 02:29:12;;;;;;;2.50;2.30;;;;;;;;;;5014017;28;20183;-79
2023/05/10 02:31:38;;;;;;;2.90;2.43;;;;;;;;;;5017028;28;20366;-79
2023/05/10 02:34:04;;;;;;;2.93;2.40;;;;;;;;;;5053488;28;20225;-79
2023/05/10 02:36:29;;;;;;;2.13;2.03;;;;;;;;;;5061027;28;20177;-79
2023/05/10 02:38:54;;;;;;;2.17;2.07;;;;;;;;;;5061113;28;20181;-79
2023/05/10 02:41:22;;;;;;;2.63;2.43;;;;;;;;;;5062789;28;20262;-79
2023/05/10 02:43:49;;;;;;;2.57;2.40;;;;;;;;;;5051314;28;20182;-79
2023/05/10 02:46:15;;;;;;;2.57;2.37;;;;;;;;;;5058531;28;20188;-79
2023/05/10 02:48:41;;;;;;;2.83;2.50;;;;;;;;;;5060119;28;20184;-79
2023/05/10 02:51:07;;;;;;;2.10;1.90;;;;;;;;;;5064326;28;20173;-79
2023/05/10 02:53:34;;;;;;;2.40;2.20;;;;;;;;;;5059734;28;20199;-79
2023/05/10 02:56:03;;;;;;;2.60;2.40;;;;;;;;;;5063041;28;20197;-80
2023/05/10 02:58:28;;;;;;;2.20;1.70;;;;;;;;;;5056977;28;20257;-80
2023/05/10 03:00:54;;;;;;;1.93;1.83;;;;;;;;;;5061975;28;20202;-80
2023/05/10 03:03:19;;;;;;;2.40;2.20;;;;;;;;;;5061067;28;20233;-79
2023/05/10 03:05:45;;;;;;;2.23;2.13;;;;;;;;;;5057450;28;20180;-79
2023/05/10 03:08:10;;;;;;;2.03;1.93;;;;;;;;;;5053863;28;20175;-79
2023/05/10 03:10:39;;;;;;;1.93;1.83;;;;;;;;;;5062239;28;20245;-80
2023/05/10 03:13:16;;;;;;;2.10;1.87;;;;;;;;;;5059121;28;20186;-80
2023/05/10 03:15:55;;;;;;;1.60;1.50;;;;;;;;;;5059743;28;20199;-81
2023/05/10 03:18:28;;;;;;;1.67;1.57;;;;;;;;;;5059239;28;20181;-79
2023/05/10 03:21:02;;;;;;;1.83;1.73;;;;;;;;;;5074976;28;20178;-79
2023/05/10 03:23:33;;;;;;;2.03;1.57;;;;;;;;;;5067257;28;20178;-79
2023/05/10 03:25:59;;;;;;;1.90;1.80;;;;;;;;;;5069407;28;20271;-79
2023/05/10 03:28:25;;;;;;;1.53;1.43;;;;;;;;;;5070884;28;20262;-79
2023/05/10 03:30:52;;;;;;;1.73;1.53;;;;;;;;;;5057168;28;20182;-80
2023/05/10 03:33:17;;;;;;;2.00;1.57;;;;;;;;;;5056918;28;20245;-80
2023/05/10 03:35:45;;;;;;;1.90;1.60;;;;;;;;;;5065438;28;20181;-79
2023/05/10 03:38:10;;;;;;;2.33;1.70;;;;;;;;;;5065408;28;20238;-79
2023/05/10 03:40:35;;;;;;;1.80;1.70;;;;;;;;;;5053944;28;20320;-79
2023/05/10 03:43:01;;;;;;;1.80;1.70;;;;;;;;;;5057055;28;20284;-80
2023/05/10 03:45:26;;;;;;;1.80;1.70;;;;;;;;;;5065045;28;20177;-79
2023/05/10 03:47:52;;;;;;;2.00;1.90;;;;;;;;;;5060268;28;20197;-79
2023/05/10 03:50:18;;;;;;;1.80;1.70;;;;;;;;;;5059725;28;20181;-79
2023/05/10 03:52:43;;;;;;;3.10;1.70;;;;;;;;;;5062146;28;20235;-80
2023/05/10 03:55:10;;;;;;;2.53;1.80;;;;;;;;;;5081007;28;20198;-79
2023/05/10 03:57:35;;;;;;;1.80;1.70;;;;;;;;;;5055079;28;20182;-79
2023/05/10 04:00:02;;;;;;;1.90;1.80;;;;;;;;;;5063031;28;20174;-79
2023/05/10 04:02:29;;;;;;;2.07;1.97;;;;;;;;;;5042744;28;20229;-79
2023/05/10 04:04:54;;;;;;;2.70;2.50;;;;;;;;;;5053777;28;20259;-80
2023/05/10 04:07:20;;;;;;;2.13;1.90;;;;;;;;;;5068054;28;20182;-80
2023/05/10 04:09:45;;;;;;;6.13;2.20;;;;;;;;;;5066108;28;20189;-80
2023/05/10 04:12:10;;;;;;;4.17;2.20;;;;;;;;;;5084596;28;20187;-79
2023/05/10 04:14:35;;;;;;;2.10;1.90;;;;;;;;;;5064060;28;20210;-79
2023/05/10 04:17:00;;;;;;;4.20;2.40;;;;;;;;;;5055921;28;20173;-79
2023/05/10 04:19:30;;;;;;;2.23;2.03;;;;;;;;;;5061292;28;20210;-79
2023/05/10 04:21:55;;;;;;;2.40;2.20;;;;;;;;;;5059053;28;20189;-79
2023/05/10 04:24:20;;;;;;;2.53;2.33;;;;;;;;;;5061185;28;20261;-79
2023/05/10 04:26:45;;;;;;;2.70;2.27;;;;;;;;;;5061947;28;20178;-80
2023/05/10 04:29:10;;;;;;;2.50;2.30;;;;;;;;;;5059117;28;20181;-80
2023/05/10 04:31:36;;;;;;;2.80;2.60;;;;;;;;;;5054907;28;20280;-80
2023/05/10 04:34:01;;;;;;;2.43;2.23;;;;;;;;;;5044795;28;20231;-79
2023/05/10 04:36:27;;;;;;;2.53;2.33;;;;;;;;;;5026367;28;20202;-79
2023/05/10 04:38:52;;;;;;;2.70;2.50;;;;;;;;;;5024120;28;20324;-80
2023/05/10 04:41:17;;;;;;;2.43;2.17;;;;;;;;;;5024513;28;20198;-79
2023/05/10 04:43:43;;;;;;;3.10;2.90;;;;;;;;;;5018762;28;20178;-80
2023/05/10 04:46:08;;;;;;;2.73;2.53;;;;;;;;;;5012184;28;20260;-80
2023/05/10 04:48:33;;;;;;;3.07;2.17;;;;;;;;;;5016566;28;20190;-80
2023/05/10 04:50:58;;;;;;;3.17;2.97;;;;;;;;;;5013738;28;20178;-80
2023/05/10 04:53:24;;;;;;;3.70;3.40;;;;;;;;;;5032723;28;20179;-80
2023/05/10 04:55:49;;;;;;;2.67;2.47;;;;;;;;;;5015480;28;20186;-80
2023/05/10 04:58:14;;;;;;;3.20;2.57;;;;;;;;;;5039553;28;20217;-80
2023/05/10 05:00:40;;;;;;;3.60;3.30;;;;;;;;;;5025530;28;20175;-80
2023/05/10 05:03:05;;;;;;;2.83;2.63;;;;;;;;;;5023402;28;20256;-75
2023/05/10 05:05:30;;;;;;;2.87;2.63;;;;;;;;;;5018790;28;20215;-75
2023/05/10 05:07:56;;;;;;;3.30;3.00;;;;;;;;;;5023886;28;20183;-75
2023/05/10 05:10:21;;;;;;;3.43;3.13;;;;;;;;;;5044205;28;20174;-75
2023/05/10 05:12:46;;;;;;;3.43;2.50;;;;;;;;;;5021681;28;20186;-75
2023/05/10 05:15:11;;;;;;;3.40;3.10;;;;;;;;;;5024844;28;20206;-75
2023/05/10 05:17:37;;;;;;;4.27;3.23;;;;;;;;;;5037470;28;20277;-75
2023/05/10 05:20:02;;;;;;;3.00;2.80;;;;;;;;;;5020289;28;20170;-75
2023/05/10 05:22:28;;;;;;;5.27;2.33;;;;;;;;;;5048237;28;20188;-75
2023/05/10 05:24:54;;;;;;;4.27;2.70;;;;;;;;;;5024218;28;20278;-75
2023/05/10 05:27:20;;;;;;;3.60;2.80;;;;;;;;;;5018660;28;20182;-75
2023/05/10 05:29:46;;;;;;;3.77;2.93;;;;;;;;;;5033697;28;20180;-75
2023/05/10 05:32:11;;;;;;;3.17;2.77;;;;;;;;;;5020187;28;20266;-75
2023/05/10 05:34:38;;;;;;;3.83;2.80;;;;;;;;;;5057766;28;20325;-75
2023/05/10 05:37:03;;;;;;;3.40;2.50;;;;;;;;;;5065510;28;20270;-75
2023/05/10 05:39:28;;;;;;;2.87;2.50;;;;;;;;;;5053221;28;20179;-75
2023/05/10 05:41:53;;;;;;;1.90;1.80;;;;;;;;;;5067472;28;20182;-75
2023/05/10 05:44:18;;;;;;;9.70;2.63;;;;;;;;;;5070668;28;20204;-75
2023/05/10 05:46:43;;;;;;;2.43;2.23;;;;;;;;;;5060263;28;20185;-75
2023/05/10 05:49:09;;;;;;;3.00;2.30;;;;;;;;;;5065615;28;20173;-74
2023/05/10 05:51:35;;;;;;;2.30;2.10;;;;;;;;;;5065550;28;20204;-75
2023/05/10 05:54:00;;;;;;;2.60;2.40;;;;;;;;;;5055305;28;20229;-75
2023/05/10 05:56:25;;;;;;;2.00;1.90;;;;;;;;;;5060270;28;20193;-74
2023/05/10 05:58:51;;;;;;;2.97;2.20;;;;;;;;;;5056782;28;20182;-74
2023/05/10 06:01:16;;;;;;;2.20;2.00;;;;;;;;;;5063914;28;20169;-74
2023/05/10 06:03:41;;;;;;;2.27;2.10;;;;;;;;;;5049449;28;20291;-74
2023/05/10 06:06:06;;;;;;;2.33;2.13;;;;;;;;;;5064092;28;20177;-74
2023/05/10 06:08:32;;;;;;;2.00;1.90;;;;;;;;;;5062753;28;20284;-74
2023/05/10 06:10:57;;;;;;;1.97;1.80;;;;;;;;;;5058816;28;20179;-74
2023/05/10 06:13:22;;;;;;;2.53;2.27;;;;;;;;;;5058713;28;20179;-74
2023/05/10 06:15:47;;;;;;;1.93;1.80;;;;;;;;;;5060458;28;20185;-78
2023/05/10 06:18:12;;;;;;;2.83;1.90;;;;;;;;;;5064888;28;20200;-74
2023/05/10 06:20:38;;;;;;;1.67;1.57;;;;;;;;;;5069848;28;20219;-74
2023/05/10 06:23:03;;;;;;;2.17;1.60;;;;;;;;;;5064125;28;20257;-74
2023/05/10 06:25:28;;;;;;;1.63;1.53;;;;;;;;;;5067350;28;20177;-75
2023/05/10 06:27:57;;;;;;;2.03;1.83;;;;;;;;;;5066045;28;20183;-74
2023/05/10 06:30:27;;;;;;;1.90;1.63;;;;;;;;;;5065125;28;20263;-74
2023/05/10 06:32:52;;;;;;;1.80;1.60;;;;;;;;;;5057403;28;20258;-74
2023/05/10 06:35:17;;;;;;;3.57;1.73;;;;;;;;;;5064710;28;20243;-74
2023/05/10 06:37:42;;;;;;;1.93;1.60;;;;;;;;;;5067450;28;20192;-74
2023/05/10 06:40:08;;;;;;;1.57;1.40;;;;;;;;;;5055344;28;20186;-75
2023/05/10 06:42:34;;;;;;;1.67;1.57;;;;;;;;;;5069314;28;20180;-75
2023/05/10 06:44:59;;;;;;;1.03;1.03;;;;;;;;;;5062973;28;20184;-75
2023/05/10 06:47:24;;;;;;;1.80;1.70;;;;;;;;;;5066430;28;20182;-75
2023/05/10 06:49:49;;;;;;;1.67;1.57;;;;;;;;;;5056205;28;20185;-74
2023/05/10 06:52:15;;;;;;;1.20;1.10;;;;;;;;;;5059938;28;20184;-74
2023/05/10 06:54:40;;;;;;;1.00;1.00;;;;;;;;;;5073580;28;20287;-74
2023/05/10 06:57:05;;;;;;;1.20;1.10;;;;;;;;;;5060394;28;20173;-74
2023/05/10 06:59:30;;;;;;;1.40;1.30;;;;;;;;;;5062704;28;20170;-74
2023/05/10 07:01:56;;;;;;;2.03;1.10;;;;;;;;;;5054463;28;20324;-74
2023/05/10 07:04:21;;;;;;;1.23;1.13;;;;;;;;;;5066164;28;20267;-75
2023/05/10 07:06:46;;;;;;;1.63;1.30;;;;;;;;;;5062921;28;20232;-75
2023/05/10 07:09:11;;;;;;;2.70;0.90;;;;;;;;;;5068997;28;20169;-75
2023/05/10 07:11:37;;;;;;;1.30;1.20;;;;;;;;;;5063333;28;20280;-74
2023/05/10 07:14:02;;;;;;;1.40;1.30;;;;;;;;;;5055286;28;20328;-74
2023/05/10 07:16:27;;;;;;;1.70;1.20;;;;;;;;;;5065134;28;20188;-74
2023/05/10 07:18:53;;;;;;;1.30;1.20;;;;;;;;;;5053046;28;20242;-75
2023/05/10 07:21:18;;;;;;;1.17;1.03;;;;;;;;;;5065792;28;20171;-74
2023/05/10 07:23:43;;;;;;;0.90;0.87;;;;;;;;;;5059055;28;20182;-74
2023/05/10 07:26:09;;;;;;;0.70;0.70;;;;;;;;;;5062385;28;20182;-74
2023/05/10 07:28:37;;;;;;;0.93;0.80;;;;;;;;;;5068875;28;20180;-75
2023/05/10 07:31:02;;;;;;;1.20;1.10;;;;;;;;;;5063175;28;20186;-75
2023/05/10 07:33:27;;;;;;;1.00;1.00;;;;;;;;;;5044316;28;20231;-74
2023/05/10 07:35:53;;;;;;;0.90;0.90;;;;;;;;;;5027202;28;20187;-75
2023/05/10 07:38:18;;;;;;;1.07;0.97;;;;;;;;;;5049134;28;20167;-74
2023/05/10 07:40:43;;;;;;;1.03;0.93;;;;;;;;;;5021648;28;20179;-75
2023/05/10 07:43:08;;;;;;;1.50;0.90;;;;;;;;;;5027544;28;20178;-75
2023/05/10 07:45:34;;;;;;;1.10;0.80;;;;;;;;;;5052024;28;20198;-75
2023/05/10 07:47:59;;;;;;;1.00;0.90;;;;;;;;;;5024467;28;20200;-75
2023/05/10 07:50:24;;;;;;;1.17;0.93;;;;;;;;;;5035807;28;20176;-75
2023/05/10 07:52:49;;;;;;;1.93;1.20;;;;;;;;;;5016457;28;20234;-74
2023/05/10 07:55:15;;;;;;;1.70;1.60;;;;;;;;;;5039084;28;20214;-75
2023/05/10 07:57:41;;;;;;;0.50;0.50;;;;;;;;;;5038677;28;20172;-75
2023/05/10 08:00:07;;;;;;;1.23;1.07;;;;;;;;;;5022713;28;20170;-75
2023/05/10 08:02:32;;;;;;;0.70;0.70;;;;;;;;;;5045108;28;20198;-75
2023/05/10 08:04:58;;;;;;;1.10;1.00;;;;;;;;;;5037170;28;20174;-75
2023/05/10 08:07:24;;;;;;;0.80;0.80;;;;;;;;;;5038898;28;20181;-75
2023/05/10 08:09:49;;;;;;;0.60;0.60;;;;;;;;;;5041117;28;20213;-75
2023/05/10 08:12:14;;;;;;;1.10;1.10;;;;;;;;;;5026522;28;20211;-75
2023/05/10 08:14:40;;;;;;;1.87;1.53;;;;;;;;;;5032803;28;20207;-75
2023/05/10 08:17:05;;;;;;;1.67;1.57;;;;;;;;;;5041839;28;20182;-75
2023/05/10 08:19:30;;;;;;;1.70;1.00;;;;;;;;;;5043400;28;20172;-75
2023/05/10 08:21:56;;;;;;;1.13;1.00;;;;;;;;;;5040801;28;20180;-75
2023/05/10 08:24:22;;;;;;;1.30;1.20;;;;;;;;;;5022651;28;20176;-75
2023/05/10 08:26:47;;;;;;;0.77;0.77;;;;;;;;;;5042274;28;20182;-75
2023/05/10 08:29:12;;;;;;;1.70;1.40;;;;;;;;;;5019165;28;20186;-75
2023/05/10 08:31:38;;;;;;;3.23;1.30;;;;;;;;;;5024172;28;20183;-75
2023/05/10 08:34:03;;;;;;;2.13;1.10;;;;;;;;;;5048718;28;20242;-75
2023/05/10 08:36:28;;;;;;;1.87;1.07;;;;;;;;;;5045811;28;20217;-75
2023/05/10 08:38:54;;;;;;;1.30;1.13;;;;;;;;;;5027630;28;20183;-75
2023/05/10 08:41:20;;;;;;;1.00;1.00;;;;;;;;;;5020986;28;20179;-75
2023/05/10 08:43:46;;;;;;;2.33;1.30;;;;;;;;;;5038757;28;20177;-75
2023/05/10 08:46:15;;;;;;;2.17;1.30;;;;;;;;;;5035766;28;20194;-75
2023/05/10 08:48:40;;;;;;;2.40;1.77;;;;;;;;;;5023344;28;20188;-75
2023/05/10 08:51:08;;;;;;;1.60;1.50;;;;;;;;;;5021223;28;20187;-75
2023/05/10 08:53:36;;;;;;;1.10;1.00;;;;;;;;;;5026225;28;20171;-75
2023/05/10 08:56:02;;;;;;;1.00;0.87;;;;;;;;;;5019950;28;20203;-75
2023/05/10 08:58:27;;;;;;;0.80;0.80;;;;;;;;;;5045063;28;20204;-75
2023/05/10 09:00:52;;;;;;;0.80;0.80;;;;;;;;;;5018199;28;20223;-75
2023/05/10 09:03:18;;;;;;;2.30;1.20;;;;;;;;;;5020946;28;20203;-75
2023/05/10 09:05:44;;;;;;;1.27;0.97;;;;;;;;;;5020255;28;20212;-74
2023/05/10 09:08:10;;;;;;;2.20;1.27;;;;;;;;;;5025858;28;20179;-75
2023/05/10 09:10:36;;;;;;;0.77;0.77;;;;;;;;;;5019302;28;20181;-75
2023/05/10 09:13:02;;;;;;;1.20;1.10;;;;;;;;;;5018628;28;20177;-74
2023/05/10 09:15:27;;;;;;;0.80;0.80;;;;;;;;;;5036623;28;20301;-75
2023/05/10 09:17:54;;;;;;;1.93;1.20;;;;;;;;;;5022151;28;20250;-75
2023/05/10 09:20:19;;;;;;;1.20;1.10;;;;;;;;;;5016027;28;20200;-75
2023/05/10 09:22:44;;;;;;;1.10;1.00;;;;;;;;;;5020327;28;20241;-75
2023/05/10 09:25:11;;;;;;;1.77;1.17;;;;;;;;;;5044493;28;20184;-75
2023/05/10 09:27:37;;;;;;;1.43;0.80;;;;;;;;;;5037651;28;20172;-74
2023/05/10 09:30:03;;;;;;;1.00;1.00;;;;;;;;;;5023143;28;20200;-75
2023/05/10 09:32:42;;;;;;;1.63;1.10;;;;;;;;;;5036566;28;20228;-75
2023/05/10 09:35:11;;;;;;;1.80;1.07;;;;;;;;;;5064082;28;20209;-75
2023/05/10 09:37:39;;;;;;;1.07;1.00;;;;;;;;;;5057588;28;20184;-75
2023/05/10 09:40:06;;;;;;;1.47;1.23;;;;;;;;;;5067163;28;20206;-74
2023/05/10 09:42:31;;;;;;;1.70;1.60;;;;;;;;;;5056790;28;20169;-75
2023/05/10 09:45:00;;;;;;;2.60;1.80;;;;;;;;;;5052269;28;20323;-75
2023/05/10 09:47:26;;;;;;;2.70;2.50;;;;;;;;;;5063217;28;20174;-75
2023/05/10 09:49:52;;;;;;;1.60;1.50;;;;;;;;;;5065104;28;20212;-75
2023/05/10 09:52:17;;;;;;;1.43;1.33;;;;;;;;;;5054009;28;20183;-75
2023/05/10 09:54:51;;;;;;;3.67;0.77;;;;;;;;;;5063359;28;20196;-75
2023/05/10 09:57:21;;;;;;;1.53;1.10;;;;;;;;;;5052667;28;20204;-75
2023/05/10 09:59:46;;;;;;;1.90;1.23;;;;;;;;;;5053272;28;20183;-75
2023/05/10 10:02:12;;;;;;;2.83;1.77;;;;;;;;;;5055368;28;20206;-75
2023/05/10 10:04:40;;;;;;;1.40;1.30;;;;;;;;;;5066815;28;20217;-75
2023/05/10 10:07:06;;;;;;;0.77;0.77;;;;;;;;;;5063936;28;20176;-75
2023/05/10 10:09:31;;;;;;;2.73;1.20;;;;;;;;;;5062777;28;20177;-75
2023/05/10 10:11:57;;;;;;;0.90;0.90;;;;;;;;;;5066065;28;20182;-75
2023/05/10 10:14:23;;;;;;;1.20;1.10;;;;;;;;;;5064167;28;20231;-75
2023/05/10 10:16:49;;;;;;;1.17;1.13;;;;;;;;;;5060208;28;20174;-75
2023/05/10 10:19:14;;;;;;;1.37;1.27;;;;;;;;;;5058796;28;20187;-75
2023/05/10 10:21:40;;;;;;;0.70;0.70;;;;;;;;;;5066715;28;20183;-75
2023/05/10 10:24:05;;;;;;;2.07;0.93;;;;;;;;;;5055919;28;20218;-75
2023/05/10 10:26:33;;;;;;;1.00;1.00;;;;;;;;;;5062838;28;20177;-75
2023/05/10 10:29:10;;;;;;;1.47;1.00;;;;;;;;;;5061205;28;20212;-75
2023/05/10 10:31:45;;;;;;;1.33;1.10;;;;;;;;;;5058781;28;20212;-75
2023/05/10 10:34:20;;;;;;;1.70;1.60;;;;;;;;;;5036160;28;20225;-75
2023/05/10 10:36:46;;;;;;;0.97;0.97;;;;;;;;;;5028224;28;20205;-74
2023/05/10 10:39:12;;;;;;;0.90;0.90;;;;;;;;;;5016204;28;20220;-75
2023/05/10 10:41:40;;;;;;;2.13;1.20;;;;;;;;;;5024249;28;20192;-75
2023/05/10 10:44:29;;;;;;;2.20;1.20;;;;;;;;;;5027001;28;20172;-75
2023/05/10 10:47:02;;;;;;;5.53;1.30;;;;;;;;;;5022438;28;20220;-75
2023/05/10 10:49:27;;;;;;;1.30;1.20;;;;;;;;;;5024441;28;20175;-75
2023/05/10 10:52:11;;;;;;;1.50;1.40;;;;;;;;;;5023131;28;20204;-75
2023/05/10 10:54:36;;;;;;;2.07;1.70;;;;;;;;;;5026343;28;20197;-75
2023/05/10 10:57:13;;;;;;;1.90;1.70;;;;;;;;;;5022962;28;20234;-75
2023/05/10 10:59:42;;;;;;;2.20;1.50;;;;;;;;;;5021280;28;20184;-75
2023/05/10 11:02:08;;;;;;;1.83;1.07;;;;;;;;;;5021126;28;20225;-75
2023/05/10 11:04:42;;;;;;;5.30;3.07;;;;;;;;;;5020719;28;20187;-75
2023/05/10 11:07:17;;;;;;;2.00;1.30;;;;;;;;;;5039535;28;20271;-75
2023/05/10 11:09:42;;;;;;;1.87;1.40;;;;;;;;;;5024961;28;20178;-75
2023/05/10 11:12:08;;;;;;;1.50;1.40;;;;;;;;;;5046036;28;20184;-75
2023/05/10 11:14:33;;;;;;;2.00;1.50;;;;;;;;;;5022414;28;20205;-75
2023/05/10 11:16:58;;;;;;;2.20;1.10;;;;;;;;;;5021470;28;20267;-75
2023/05/10 11:19:26;;;;;;;2.37;1.50;;;;;;;;;;5041156;28;20168;-75
2023/05/10 11:22:13;;;;;;;3.60;1.60;;;;;;;;;;5025072;28;20203;-75
2023/05/10 11:24:38;;;;;;;1.47;1.37;;;;;;;;;;5030468;28;20233;-75
2023/05/10 11:27:03;;;;;;;2.30;2.10;;;;;;;;;;5018482;28;20185;-75
2023/05/10 11:29:28;;;;;;;2.63;1.33;;;;;;;;;;5038925;28;20178;-75
2023/05/10 11:31:56;;;;;;;2.03;1.30;;;;;;;;;;5027806;28;20184;-75
2023/05/10 11:34:28;;;;;;;2.03;1.27;;;;;;;;;;5044937;28;20211;-75
2023/05/10 11:36:54;;;;;;;1.97;1.20;;;;;;;;;;5042866;28;20171;-75
2023/05/10 11:39:20;;;;;;;1.50;1.40;;;;;;;;;;5059558;28;20194;-75
2023/05/10 11:41:47;;;;;;;2.73;1.30;;;;;;;;;;5025177;28;20177;-74
2023/05/10 11:44:12;;;;;;;1.53;1.43;;;;;;;;;;5019660;28;20174;-74
2023/05/10 11:46:37;;;;;;;2.40;1.30;;;;;;;;;;5046812;28;20174;-75
2023/05/10 11:49:06;;;;;;;1.67;1.20;;;;;;;;;;5030317;28;20193;-74
2023/05/10 11:51:33;;;;;;;1.73;1.40;;;;;;;;;;5045899;28;20188;-74
2023/05/10 11:53:58;;;;;;;1.50;1.17;;;;;;;;;;5035370;28;20229;-74
2023/05/10 11:56:32;;;;;;;1.03;1.00;;;;;;;;;;5046210;28;20179;-74
2023/05/10 11:58:58;;;;;;;1.47;1.37;;;;;;;;;;5043368;28;20176;-74
2023/05/10 12:01:24;;;;;;;2.43;1.50;;;;;;;;;;5028175;28;20237;-74
2023/05/10 12:03:50;;;;;;;1.20;1.10;;;;;;;;;;5026874;28;20213;-74
2023/05/10 12:06:16;;;;;;;1.73;1.50;;;;;;;;;;5020281;28;20175;-74
2023/05/10 12:08:44;;;;;;;1.53;1.20;;;;;;;;;;5052100;28;20177;-74
2023/05/10 12:11:16;;;;;;;2.43;1.23;;;;;;;;;;5028727;28;20183;-74
2023/05/10 12:13:43;;;;;;;2.33;1.17;;;;;;;;;;5030080;28;20330;-75
2023/05/10 12:16:28;;;;;;;2.60;1.30;;;;;;;;;;5021175;28;20168;-75
2023/05/10 12:18:55;;;;;;;1.97;1.47;;;;;;;;;;5026680;28;20185;-75
2023/05/10 12:21:21;;;;;;;1.80;1.50;;;;;;;;;;5015022;28;20224;-75
2023/05/10 12:23:47;;;;;;;1.20;1.10;;;;;;;;;;5029886;28;20175;-74
2023/05/10 12:26:12;;;;;;;1.30;1.20;;;;;;;;;;5022418;28;20171;-74
2023/05/10 12:28:39;;;;;;;2.53;1.27;;;;;;;;;;5019129;28;20183;-74
2023/05/10 12:31:05;;;;;;;1.20;1.13;;;;;;;;;;5036114;28;20173;-74
2023/05/10 12:33:38;;;;;;;1.30;1.20;;;;;;;;;;5051404;28;20209;-75
2023/05/10 12:36:04;;;;;;;1.53;1.10;;;;;;;;;;5055219;28;20185;-75
2023/05/10 12:38:32;;;;;;;2.23;1.20;;;;;;;;;;5066936;28;20167;-75
2023/05/10 12:40:58;;;;;;;4.00;2.03;;;;;;;;;;5059671;28;20259;-75
2023/05/10 12:43:23;;;;;;;3.00;2.67;;;;;;;;;;5051449;28;20261;-75
2023/05/10 12:45:48;;;;;;;2.67;2.30;;;;;;;;;;5061512;28;20201;-75
2023/05/10 12:48:14;;;;;;;3.13;1.37;;;;;;;;;;5057485;28;20312;-75
2023/05/10 12:50:39;;;;;;;2.17;1.20;;;;;;;;;;5060957;28;20186;-75
2023/05/10 12:53:04;;;;;;;1.30;1.20;;;;;;;;;;5054297;28;20179;-75
2023/05/10 12:55:30;;;;;;;2.57;1.30;;;;;;;;;;5080774;28;20208;-74
2023/05/10 12:57:55;;;;;;;2.93;1.90;;;;;;;;;;5054798;28;20169;-75
2023/05/10 13:00:20;;;;;;;2.47;2.00;;;;;;;;;;5084434;28;20171;-74
2023/05/10 13:02:45;;;;;;;1.60;1.37;;;;;;;;;;5063281;28;20288;-75
2023/05/10 13:05:12;;;;;;;1.50;1.40;;;;;;;;;;5060287;28;20185;-75
2023/05/10 13:07:38;;;;;;;1.53;1.37;;;;;;;;;;5065359;28;20189;-75
2023/05/10 13:10:03;;;;;;;4.67;1.90;;;;;;;;;;5056221;28;20182;-75
2023/05/10 13:12:29;;;;;;;3.17;1.50;;;;;;;;;;5061720;28;20265;-75
2023/05/10 13:14:54;;;;;;;4.93;1.83;;;;;;;;;;5066145;28;20229;-74
2023/05/10 13:17:19;;;;;;;1.20;1.10;;;;;;;;;;5050337;28;20173;-75
2023/05/10 13:19:45;;;;;;;1.20;1.10;;;;;;;;;;5063649;28;20183;-75
2023/05/10 13:22:10;;;;;;;2.00;1.30;;;;;;;;;;5050013;28;20167;-75
2023/05/10 13:24:35;;;;;;;1.60;1.50;;;;;;;;;;5063035;28;20189;-75
2023/05/10 13:27:00;;;;;;;2.87;2.23;;;;;;;;;;5060867;28;20177;-75
2023/05/10 13:29:26;;;;;;;1.90;1.60;;;;;;;;;;5052923;28;20313;-75
2023/05/10 13:31:51;;;;;;;48.07;43.17;;;;;;;;;;5051445;28;20207;-75
2023/05/10 13:34:16;;;;;;;4.37;2.83;;;;;;;;;;5020918;28;20222;-75
2023/05/10 13:36:42;;;;;;;5.57;4.20;;;;;;;;;;5017215;28;20201;-74
2023/05/10 13:39:07;;;;;;;2.23;1.37;;;;;;;;;;5031313;28;20183;-75
2023/05/10 13:41:32;;;;;;;37.60;25.80;;;;;;;;;;5024394;28;20171;-75
2023/05/10 13:43:58;;;;;;;12.17;8.37;;;;;;;;;;5020060;28;20184;-75
2023/05/10 13:46:23;;;;;;;10.07;7.63;;;;;;;;;;5019317;28;20175;-75
2023/05/10 13:48:48;;;;;;;3.33;2.40;;;;;;;;;;5021952;28;20201;-75
2023/05/10 13:51:13;;;;;;;1.63;1.27;;;;;;;;;;5039610;28;20193;-75
2023/05/10 13:53:38;;;;;;;7.07;4.47;;;;;;;;;;5040695;28;20173;-75
2023/05/10 13:56:04;;;;;;;1.70;1.40;;;;;;;;;;5023543;28;20182;-75
2023/05/10 13:58:29;;;;;;;2.40;1.70;;;;;;;;;;5044420;28;20202;-75
2023/05/10 14:00:55;;;;;;;1.90;1.70;;;;;;;;;;5043924;28;20171;-75
2023/05/10 14:03:20;;;;;;;1.70;1.50;;;;;;;;;;5021353;28;20203;-75
2023/05/10 14:05:47;;;;;;;1.20;1.10;;;;;;;;;;5023832;28;20171;-75
2023/05/10 14:08:13;;;;;;;1.20;1.10;;;;;;;;;;5024067;28;20188;-75
2023/05/10 14:10:38;;;;;;;0.87;0.87;;;;;;;;;;5039558;28;20181;-75
2023/05/10 14:13:03;;;;;;;1.47;0.90;;;;;;;;;;5015922;28;20205;-75
2023/05/10 14:15:28;;;;;;;1.10;1.00;;;;;;;;;;5047336;28;20211;-75
2023/05/10 14:17:53;;;;;;;2.10;1.27;;;;;;;;;;5021245;28;20214;-75
2023/05/10 14:20:19;;;;;;;1.90;1.00;;;;;;;;;;5020737;28;20218;-75
2023/05/10 14:22:44;;;;;;;1.90;0.90;;;;;;;;;;5014703;28;20175;-75
2023/05/10 14:25:09;;;;;;;0.93;0.93;;;;;;;;;;5016604;28;20176;-75
2023/05/10 14:27:34;;;;;;;0.90;0.90;;;;;;;;;;5040100;28;20209;-75
2023/05/10 14:30:00;;;;;;;1.70;1.20;;;;;;;;;;5039648;28;20278;-75
2023/05/10 14:32:26;;;;;;;2.90;1.00;;;;;;;;;;5037949;28;20230;-75
2023/05/10 14:34:51;;;;;;;1.00;1.00;;;;;;;;;;5015643;28;20195;-75
2023/05/10 14:37:17;;;;;;;1.23;0.90;;;;;;;;;;5017764;28;20254;-75
2023/05/10 14:39:42;;;;;;;0.80;0.80;;;;;;;;;;5019697;28;20182;-75